sensor_id;sensor_type;location;lat;lon;timestamp;temperature;humidity
2955;DHT22;1487;51.470;6.938;2023-12-29T00:02:25;10.50;99.90
2955;DHT22;1487;51.470;6.938;2023-12-29T00:04:52;10.50;99.90
2955;DHT22;1487;51.470;6.938;2023-12-29T00:07:18;10.50;99.90
2955;DHT22;1487;51.470;6.938;2023-12-29T00:09:45;10.50;99.90
2955;DHT22;1487;51.470;6.938;2023-12-29T00:12:12;10.40;99.90
2955;DHT22;1487;51.470;6.938;2023-12-29T00:14:39;10.50;99.90
2955;DHT22;1487;51.470;6.938;2023-12-29T00:17:07;10.40;99.90
2955;DHT22;1487;51.470;6.938;2023-12-29T00:19:34;10.40;99.90
2955;DHT22;1487;51.470;6.938;2023-12-29T00:22:01;10.50;99.90
2955;DHT22;1487;51.470;6.938;2023-12-29T00:24:28;10.50;99.90
2955;DHT22;1487;51.470;6.938;2023-12-29T00:26:56;10.50;99.90
2955;DHT22;1487;51.470;6.938;2023-12-29T00:29:23;10.50;99.90
2955;DHT22;1487;51.470;6.938;2023-12-29T00:31:50;10.50;99.90
2955;DHT22;1487;51.470;6.938;2023-12-29T00:34:18;10.50;99.90
2955;DHT22;1487;51.470;6.938;2023-12-29T00:36:45;10.50;99.90
2955;DHT22;1487;51.470;6.938;2023-12-29T00:39:12;10.50;99.90
2955;DHT22;1487;51.470;6.938;2023-12-29T00:41:39;10.40;99.90
2955;DHT22;1487;51.470;6.938;2023-12-29T00:44:06;10.40;99.90
2955;DHT22;1487;51.470;6.938;2023-12-29T00:46:33;10.40;99.90
2955;DHT22;1487;51.470;6.938;2023-12-29T00:49:00;10.40;99.90
2955;DHT22;1487;51.470;6.938;2023-12-29T00:51:28;10.50;99.90
2955;DHT22;1487;51.470;6.938;2023-12-29T00:53:55;10.50;99.90
2955;DHT22;1487;51.470;6.938;2023-12-29T00:56:22;10.50;99.90
2955;DHT22;1487;51.470;6.938;2023-12-29T00:58:48;10.40;99.90
2955;DHT22;1487;51.470;6.938;2023-12-29T01:01:15;10.50;99.90
2955;DHT22;1487;51.470;6.938;2023-12-29T01:03:42;10.50;99.90
2955;DHT22;1487;51.470;6.938;2023-12-29T01:06:09;10.50;99.90
2955;DHT22;1487;51.470;6.938;2023-12-29T01:08:37;10.50;99.90
2955;DHT22;1487;51.470;6.938;2023-12-29T01:11:03;10.50;99.90
2955;DHT22;1487;51.470;6.938;2023-12-29T01:13:30;10.50;99.90
2955;DHT22;1487;51.470;6.938;2023-12-29T01:15:57;10.50;99.90
2955;DHT22;1487;51.470;6.938;2023-12-29T01:18:24;10.50;99.90
2955;DHT22;1487;51.470;6.938;2023-12-29T01:20:50;10.50;99.90
2955;DHT22;1487;51.470;6.938;2023-12-29T01:23:17;10.50;99.90
2955;DHT22;1487;51.470;6.938;2023-12-29T01:25:45;10.50;99.90
2955;DHT22;1487;51.470;6.938;2023-12-29T01:28:12;10.50;99.90
2955;DHT22;1487;51.470;6.938;2023-12-29T01:30:39;10.50;99.90
2955;DHT22;1487;51.470;6.938;2023-12-29T01:33:05;10.50;99.90
2955;DHT22;1487;51.470;6.938;2023-12-29T01:35:32;10.50;99.90
2955;DHT22;1487;51.470;6.938;2023-12-29T01:37:59;10.50;99.90
2955;DHT22;1487;51.470;6.938;2023-12-29T01:40:26;10.50;99.90
2955;DHT22;1487;51.470;6.938;2023-12-29T01:42:54;10.50;99.90
2955;DHT22;1487;51.470;6.938;2023-12-29T01:45:22;10.50;99.90
2955;DHT22;1487;51.470;6.938;2023-12-29T01:47:50;10.50;99.90
2955;DHT22;1487;51.470;6.938;2023-12-29T01:50:18;10.40;99.90
2955;DHT22;1487;51.470;6.938;2023-12-29T01:52:46;10.30;99.90
2955;DHT22;1487;51.470;6.938;2023-12-29T01:55:17;10.30;99.90
2955;DHT22;1487;51.470;6.938;2023-12-29T01:57:45;10.30;99.90
2955;DHT22;1487;51.470;6.938;2023-12-29T02:00:15;10.20;99.90
2955;DHT22;1487;51.470;6.938;2023-12-29T02:02:44;10.20;99.90
2955;DHT22;1487;51.470;6.938;2023-12-29T02:05:14;10.10;99.90
2955;DHT22;1487;51.470;6.938;2023-12-29T02:07:41;10.00;99.90
2955;DHT22;1487;51.470;6.938;2023-12-29T02:10:09;9.90;99.90
2955;DHT22;1487;51.470;6.938;2023-12-29T02:12:39;9.70;99.90
2955;DHT22;1487;51.470;6.938;2023-12-29T02:15:07;9.50;99.90
2955;DHT22;1487;51.470;6.938;2023-12-29T02:17:40;9.40;99.90
2955;DHT22;1487;51.470;6.938;2023-12-29T02:20:09;9.20;99.90
2955;DHT22;1487;51.470;6.938;2023-12-29T02:22:35;9.20;99.90
2955;DHT22;1487;51.470;6.938;2023-12-29T02:25:04;9.10;99.90
2955;DHT22;1487;51.470;6.938;2023-12-29T02:27:38;9.00;99.90
2955;DHT22;1487;51.470;6.938;2023-12-29T02:30:10;9.00;99.90
2955;DHT22;1487;51.470;6.938;2023-12-29T02:32:39;9.00;99.90
2955;DHT22;1487;51.470;6.938;2023-12-29T02:35:09;9.00;99.90
2955;DHT22;1487;51.470;6.938;2023-12-29T02:37:37;9.00;99.90
2955;DHT22;1487;51.470;6.938;2023-12-29T02:40:08;9.00;99.90
2955;DHT22;1487;51.470;6.938;2023-12-29T02:42:35;9.00;99.90
2955;DHT22;1487;51.470;6.938;2023-12-29T02:45:02;8.90;99.90
2955;DHT22;1487;51.470;6.938;2023-12-29T02:47:29;8.90;99.90
2955;DHT22;1487;51.470;6.938;2023-12-29T02:49:55;8.90;99.90
2955;DHT22;1487;51.470;6.938;2023-12-29T02:52:22;8.90;99.90
2955;DHT22;1487;51.470;6.938;2023-12-29T02:54:49;8.90;99.90
2955;DHT22;1487;51.470;6.938;2023-12-29T02:57:17;9.00;99.90
2955;DHT22;1487;51.470;6.938;2023-12-29T02:59:44;9.00;99.90
2955;DHT22;1487;51.470;6.938;2023-12-29T03:02:11;8.90;99.90
2955;DHT22;1487;51.470;6.938;2023-12-29T03:04:37;9.00;99.90
2955;DHT22;1487;51.470;6.938;2023-12-29T03:07:04;9.00;99.90
2955;DHT22;1487;51.470;6.938;2023-12-29T03:09:31;9.00;99.90
2955;DHT22;1487;51.470;6.938;2023-12-29T03:11:58;9.10;99.90
2955;DHT22;1487;51.470;6.938;2023-12-29T03:14:26;9.10;99.90
2955;DHT22;1487;51.470;6.938;2023-12-29T03:16:53;9.20;99.90
2955;DHT22;1487;51.470;6.938;2023-12-29T03:19:19;9.20;99.90
2955;DHT22;1487;51.470;6.938;2023-12-29T03:21:46;9.30;99.90
2955;DHT22;1487;51.470;6.938;2023-12-29T03:24:13;9.30;99.90
2955;DHT22;1487;51.470;6.938;2023-12-29T03:26:40;9.40;99.90
2955;DHT22;1487;51.470;6.938;2023-12-29T03:29:07;9.40;99.90
2955;DHT22;1487;51.470;6.938;2023-12-29T03:31:35;9.40;99.90
2955;DHT22;1487;51.470;6.938;2023-12-29T03:34:01;9.40;99.90
2955;DHT22;1487;51.470;6.938;2023-12-29T03:36:28;9.50;99.90
2955;DHT22;1487;51.470;6.938;2023-12-29T03:38:55;9.50;99.90
2955;DHT22;1487;51.470;6.938;2023-12-29T03:41:21;9.50;99.90
2955;DHT22;1487;51.470;6.938;2023-12-29T03:43:48;9.50;99.90
2955;DHT22;1487;51.470;6.938;2023-12-29T03:46:16;9.60;99.90
2955;DHT22;1487;51.470;6.938;2023-12-29T03:48:45;9.60;99.90
2955;DHT22;1487;51.470;6.938;2023-12-29T03:51:12;9.60;99.90
2955;DHT22;1487;51.470;6.938;2023-12-29T03:53:39;9.60;99.90
2955;DHT22;1487;51.470;6.938;2023-12-29T03:56:07;9.70;99.90
2955;DHT22;1487;51.470;6.938;2023-12-29T03:58:34;9.70;99.90
2955;DHT22;1487;51.470;6.938;2023-12-29T04:01:01;9.70;99.90
2955;DHT22;1487;51.470;6.938;2023-12-29T04:03:27;9.70;99.90
2955;DHT22;1487;51.470;6.938;2023-12-29T04:05:56;9.70;99.90
2955;DHT22;1487;51.470;6.938;2023-12-29T04:08:22;9.70;99.90
2955;DHT22;1487;51.470;6.938;2023-12-29T04:10:48;9.70;99.90
2955;DHT22;1487;51.470;6.938;2023-12-29T04:13:15;9.70;99.90
2955;DHT22;1487;51.470;6.938;2023-12-29T04:15:42;9.70;99.90
2955;DHT22;1487;51.470;6.938;2023-12-29T04:18:08;9.80;99.90
2955;DHT22;1487;51.470;6.938;2023-12-29T04:20:35;9.80;99.90
2955;DHT22;1487;51.470;6.938;2023-12-29T04:23:05;9.90;99.90
2955;DHT22;1487;51.470;6.938;2023-12-29T04:25:32;9.90;99.90
2955;DHT22;1487;51.470;6.938;2023-12-29T04:27:59;9.90;99.90
2955;DHT22;1487;51.470;6.938;2023-12-29T04:30:26;9.90;99.90
2955;DHT22;1487;51.470;6.938;2023-12-29T04:32:53;9.90;99.90
2955;DHT22;1487;51.470;6.938;2023-12-29T04:35:19;10.00;99.90
2955;DHT22;1487;51.470;6.938;2023-12-29T04:37:46;10.00;99.90
2955;DHT22;1487;51.470;6.938;2023-12-29T04:40:14;10.00;99.90
2955;DHT22;1487;51.470;6.938;2023-12-29T04:42:41;10.10;99.90
2955;DHT22;1487;51.470;6.938;2023-12-29T04:45:08;10.00;99.90
2955;DHT22;1487;51.470;6.938;2023-12-29T04:47:35;10.10;99.90
2955;DHT22;1487;51.470;6.938;2023-12-29T04:50:03;10.10;99.90
2955;DHT22;1487;51.470;6.938;2023-12-29T04:52:31;10.10;99.90
2955;DHT22;1487;51.470;6.938;2023-12-29T04:54:58;10.10;99.90
2955;DHT22;1487;51.470;6.938;2023-12-29T04:57:26;10.10;99.90
2955;DHT22;1487;51.470;6.938;2023-12-29T04:59:53;10.10;99.90
2955;DHT22;1487;51.470;6.938;2023-12-29T05:02:19;10.10;99.90
2955;DHT22;1487;51.470;6.938;2023-12-29T05:04:46;10.10;99.90
2955;DHT22;1487;51.470;6.938;2023-12-29T05:07:13;10.00;99.90
2955;DHT22;1487;51.470;6.938;2023-12-29T05:09:40;10.00;99.90
2955;DHT22;1487;51.470;6.938;2023-12-29T05:12:07;10.00;99.90
2955;DHT22;1487;51.470;6.938;2023-12-29T05:14:35;10.00;99.90
2955;DHT22;1487;51.470;6.938;2023-12-29T05:17:02;9.90;99.90
2955;DHT22;1487;51.470;6.938;2023-12-29T05:19:29;10.00;99.90
2955;DHT22;1487;51.470;6.938;2023-12-29T05:21:55;10.00;99.90
2955;DHT22;1487;51.470;6.938;2023-12-29T05:24:22;10.00;99.90
2955;DHT22;1487;51.470;6.938;2023-12-29T05:26:49;10.00;99.90
2955;DHT22;1487;51.470;6.938;2023-12-29T05:29:16;10.00;99.90
2955;DHT22;1487;51.470;6.938;2023-12-29T05:31:44;10.00;99.90
2955;DHT22;1487;51.470;6.938;2023-12-29T05:34:11;10.10;99.90
2955;DHT22;1487;51.470;6.938;2023-12-29T05:36:38;10.10;99.90
2955;DHT22;1487;51.470;6.938;2023-12-29T05:39:06;10.10;99.90
2955;DHT22;1487;51.470;6.938;2023-12-29T05:41:33;10.10;99.90
2955;DHT22;1487;51.470;6.938;2023-12-29T05:43:59;10.20;99.90
2955;DHT22;1487;51.470;6.938;2023-12-29T05:46:26;10.20;99.90
2955;DHT22;1487;51.470;6.938;2023-12-29T05:48:54;10.10;99.90
2955;DHT22;1487;51.470;6.938;2023-12-29T05:51:21;10.20;99.90
2955;DHT22;1487;51.470;6.938;2023-12-29T05:53:48;10.10;99.90
2955;DHT22;1487;51.470;6.938;2023-12-29T05:56:15;10.10;99.90
2955;DHT22;1487;51.470;6.938;2023-12-29T05:58:42;10.20;99.90
2955;DHT22;1487;51.470;6.938;2023-12-29T06:01:09;10.20;99.90
2955;DHT22;1487;51.470;6.938;2023-12-29T06:03:37;10.20;99.90
2955;DHT22;1487;51.470;6.938;2023-12-29T06:06:05;10.20;99.90
2955;DHT22;1487;51.470;6.938;2023-12-29T06:08:32;10.20;99.90
2955;DHT22;1487;51.470;6.938;2023-12-29T06:10:59;10.20;99.90
2955;DHT22;1487;51.470;6.938;2023-12-29T06:13:28;10.20;99.90
2955;DHT22;1487;51.470;6.938;2023-12-29T06:15:55;10.20;99.90
2955;DHT22;1487;51.470;6.938;2023-12-29T06:18:22;10.10;99.90
2955;DHT22;1487;51.470;6.938;2023-12-29T06:20:48;10.20;99.90
2955;DHT22;1487;51.470;6.938;2023-12-29T06:23:17;10.10;99.90
2955;DHT22;1487;51.470;6.938;2023-12-29T06:25:43;10.20;99.90
2955;DHT22;1487;51.470;6.938;2023-12-29T06:28:10;10.20;99.90
2955;DHT22;1487;51.470;6.938;2023-12-29T06:30:37;10.10;99.90
2955;DHT22;1487;51.470;6.938;2023-12-29T06:33:04;10.10;99.90
2955;DHT22;1487;51.470;6.938;2023-12-29T06:35:31;10.10;99.90
2955;DHT22;1487;51.470;6.938;2023-12-29T06:37:58;10.10;99.90
2955;DHT22;1487;51.470;6.938;2023-12-29T06:40:26;10.10;99.90
2955;DHT22;1487;51.470;6.938;2023-12-29T06:42:53;10.10;99.90
2955;DHT22;1487;51.470;6.938;2023-12-29T06:45:20;10.10;99.90
2955;DHT22;1487;51.470;6.938;2023-12-29T06:47:47;10.10;99.90
2955;DHT22;1487;51.470;6.938;2023-12-29T06:50:13;10.10;99.90
2955;DHT22;1487;51.470;6.938;2023-12-29T06:52:40;10.10;99.90
2955;DHT22;1487;51.470;6.938;2023-12-29T06:55:08;10.10;99.90
2955;DHT22;1487;51.470;6.938;2023-12-29T06:57:36;10.10;99.90
2955;DHT22;1487;51.470;6.938;2023-12-29T07:00:05;10.10;99.90
2955;DHT22;1487;51.470;6.938;2023-12-29T07:02:32;10.10;99.90
2955;DHT22;1487;51.470;6.938;2023-12-29T07:04:59;10.10;99.90
2955;DHT22;1487;51.470;6.938;2023-12-29T07:07:25;10.10;99.90
2955;DHT22;1487;51.470;6.938;2023-12-29T07:09:52;10.10;99.90
2955;DHT22;1487;51.470;6.938;2023-12-29T07:12:19;10.10;99.90
2955;DHT22;1487;51.470;6.938;2023-12-29T07:14:48;10.10;99.90
2955;DHT22;1487;51.470;6.938;2023-12-29T07:17:14;10.10;99.90
2955;DHT22;1487;51.470;6.938;2023-12-29T07:19:41;9.90;99.90
2955;DHT22;1487;51.470;6.938;2023-12-29T07:22:08;9.80;99.90
2955;DHT22;1487;51.470;6.938;2023-12-29T07:24:35;9.70;99.90
2955;DHT22;1487;51.470;6.938;2023-12-29T07:27:02;9.60;99.90
2955;DHT22;1487;51.470;6.938;2023-12-29T07:29:29;9.50;99.90
2955;DHT22;1487;51.470;6.938;2023-12-29T07:31:58;9.50;99.90
2955;DHT22;1487;51.470;6.938;2023-12-29T07:34:25;9.40;99.90
2955;DHT22;1487;51.470;6.938;2023-12-29T07:36:51;9.40;99.90
2955;DHT22;1487;51.470;6.938;2023-12-29T07:39:19;9.30;99.90
2955;DHT22;1487;51.470;6.938;2023-12-29T07:41:45;9.20;99.90
2955;DHT22;1487;51.470;6.938;2023-12-29T07:44:14;9.20;99.90
2955;DHT22;1487;51.470;6.938;2023-12-29T07:46:41;9.20;99.90
2955;DHT22;1487;51.470;6.938;2023-12-29T07:49:09;9.20;99.90
2955;DHT22;1487;51.470;6.938;2023-12-29T07:51:39;9.10;99.90
2955;DHT22;1487;51.470;6.938;2023-12-29T07:54:06;9.10;99.90
2955;DHT22;1487;51.470;6.938;2023-12-29T07:56:33;9.20;99.90
2955;DHT22;1487;51.470;6.938;2023-12-29T07:59:00;9.20;99.90
2955;DHT22;1487;51.470;6.938;2023-12-29T08:01:26;9.20;99.90
2955;DHT22;1487;51.470;6.938;2023-12-29T08:03:53;9.20;99.90
2955;DHT22;1487;51.470;6.938;2023-12-29T08:06:21;9.20;99.90
2955;DHT22;1487;51.470;6.938;2023-12-29T08:08:48;9.20;99.90
2955;DHT22;1487;51.470;6.938;2023-12-29T08:11:15;9.30;99.90
2955;DHT22;1487;51.470;6.938;2023-12-29T08:13:44;9.30;99.90
2955;DHT22;1487;51.470;6.938;2023-12-29T08:16:11;9.30;99.90
2955;DHT22;1487;51.470;6.938;2023-12-29T08:18:38;9.30;99.90
2955;DHT22;1487;51.470;6.938;2023-12-29T08:21:04;9.30;99.90
2955;DHT22;1487;51.470;6.938;2023-12-29T08:23:33;9.40;99.90
2955;DHT22;1487;51.470;6.938;2023-12-29T08:25:59;9.40;99.90
2955;DHT22;1487;51.470;6.938;2023-12-29T08:28:28;9.40;99.90
2955;DHT22;1487;51.470;6.938;2023-12-29T08:30:55;9.40;99.90
2955;DHT22;1487;51.470;6.938;2023-12-29T08:33:22;9.40;99.90
2955;DHT22;1487;51.470;6.938;2023-12-29T08:35:49;9.40;99.90
2955;DHT22;1487;51.470;6.938;2023-12-29T08:38:15;9.40;99.90
2955;DHT22;1487;51.470;6.938;2023-12-29T08:40:44;9.40;99.90
2955;DHT22;1487;51.470;6.938;2023-12-29T08:43:10;9.30;99.90
2955;DHT22;1487;51.470;6.938;2023-12-29T08:45:37;9.30;99.90
2955;DHT22;1487;51.470;6.938;2023-12-29T08:48:05;9.30;99.90
2955;DHT22;1487;51.470;6.938;2023-12-29T08:50:31;9.30;99.90
2955;DHT22;1487;51.470;6.938;2023-12-29T08:52:58;9.30;99.90
2955;DHT22;1487;51.470;6.938;2023-12-29T08:55:25;9.40;99.90
2955;DHT22;1487;51.470;6.938;2023-12-29T08:57:53;9.40;99.90
2955;DHT22;1487;51.470;6.938;2023-12-29T09:00:20;9.40;99.90
2955;DHT22;1487;51.470;6.938;2023-12-29T09:02:47;9.40;99.90
2955;DHT22;1487;51.470;6.938;2023-12-29T09:05:13;9.40;99.90
2955;DHT22;1487;51.470;6.938;2023-12-29T09:07:41;9.50;99.90
2955;DHT22;1487;51.470;6.938;2023-12-29T09:10:08;9.50;99.90
2955;DHT22;1487;51.470;6.938;2023-12-29T09:12:37;9.50;99.90
2955;DHT22;1487;51.470;6.938;2023-12-29T09:15:06;9.50;99.90
2955;DHT22;1487;51.470;6.938;2023-12-29T09:17:33;9.50;99.90
2955;DHT22;1487;51.470;6.938;2023-12-29T09:20:00;9.50;99.90
2955;DHT22;1487;51.470;6.938;2023-12-29T09:22:27;9.50;99.90
2955;DHT22;1487;51.470;6.938;2023-12-29T09:24:54;9.50;99.90
2955;DHT22;1487;51.470;6.938;2023-12-29T09:27:21;9.50;99.90
2955;DHT22;1487;51.470;6.938;2023-12-29T09:29:48;9.50;99.90
2955;DHT22;1487;51.470;6.938;2023-12-29T09:32:16;9.50;99.90
2955;DHT22;1487;51.470;6.938;2023-12-29T09:34:43;9.50;99.90
2955;DHT22;1487;51.470;6.938;2023-12-29T09:37:09;9.50;99.90
2955;DHT22;1487;51.470;6.938;2023-12-29T09:39:36;9.60;99.90
2955;DHT22;1487;51.470;6.938;2023-12-29T09:42:04;9.60;99.90
2955;DHT22;1487;51.470;6.938;2023-12-29T09:44:32;9.60;99.90
2955;DHT22;1487;51.470;6.938;2023-12-29T09:47:03;9.60;99.90
2955;DHT22;1487;51.470;6.938;2023-12-29T09:49:37;9.60;99.90
2955;DHT22;1487;51.470;6.938;2023-12-29T09:52:05;9.60;99.90
2955;DHT22;1487;51.470;6.938;2023-12-29T09:54:33;9.50;99.90
2955;DHT22;1487;51.470;6.938;2023-12-29T09:57:02;9.50;99.90
2955;DHT22;1487;51.470;6.938;2023-12-29T09:59:32;9.50;99.90
2955;DHT22;1487;51.470;6.938;2023-12-29T10:02:03;9.50;99.90
2955;DHT22;1487;51.470;6.938;2023-12-29T10:04:30;9.40;99.90
2955;DHT22;1487;51.470;6.938;2023-12-29T10:07:02;9.40;99.90
2955;DHT22;1487;51.470;6.938;2023-12-29T10:09:33;9.40;99.90
2955;DHT22;1487;51.470;6.938;2023-12-29T10:12:01;9.30;99.90
2955;DHT22;1487;51.470;6.938;2023-12-29T10:14:34;9.30;99.90
2955;DHT22;1487;51.470;6.938;2023-12-29T10:17:08;9.30;99.90
2955;DHT22;1487;51.470;6.938;2023-12-29T10:19:39;9.30;99.90
2955;DHT22;1487;51.470;6.938;2023-12-29T10:22:14;9.20;99.90
2955;DHT22;1487;51.470;6.938;2023-12-29T10:24:42;9.20;99.90
2955;DHT22;1487;51.470;6.938;2023-12-29T10:27:11;9.20;99.90
2955;DHT22;1487;51.470;6.938;2023-12-29T10:29:38;9.20;99.90
2955;DHT22;1487;51.470;6.938;2023-12-29T10:32:05;9.20;99.90
2955;DHT22;1487;51.470;6.938;2023-12-29T10:34:32;9.20;99.90
2955;DHT22;1487;51.470;6.938;2023-12-29T10:36:59;9.30;99.90
2955;DHT22;1487;51.470;6.938;2023-12-29T10:39:28;9.20;99.90
2955;DHT22;1487;51.470;6.938;2023-12-29T10:42:03;9.30;99.90
2955;DHT22;1487;51.470;6.938;2023-12-29T10:44:31;9.30;99.90
2955;DHT22;1487;51.470;6.938;2023-12-29T10:46:58;9.30;99.90
2955;DHT22;1487;51.470;6.938;2023-12-29T10:49:25;9.40;99.90
2955;DHT22;1487;51.470;6.938;2023-12-29T10:51:52;9.40;99.90
2955;DHT22;1487;51.470;6.938;2023-12-29T10:54:20;9.40;99.90
2955;DHT22;1487;51.470;6.938;2023-12-29T10:57:00;9.50;99.90
2955;DHT22;1487;51.470;6.938;2023-12-29T10:59:28;9.50;99.90
2955;DHT22;1487;51.470;6.938;2023-12-29T11:01:56;9.60;99.90
2955;DHT22;1487;51.470;6.938;2023-12-29T11:04:23;9.70;99.90
2955;DHT22;1487;51.470;6.938;2023-12-29T11:06:50;9.70;99.90
2955;DHT22;1487;51.470;6.938;2023-12-29T11:09:27;9.80;99.90
2955;DHT22;1487;51.470;6.938;2023-12-29T11:11:56;9.90;99.90
2955;DHT22;1487;51.470;6.938;2023-12-29T11:14:24;9.90;99.90
2955;DHT22;1487;51.470;6.938;2023-12-29T11:16:52;10.00;99.90
2955;DHT22;1487;51.470;6.938;2023-12-29T11:19:21;10.10;99.90
2955;DHT22;1487;51.470;6.938;2023-12-29T11:21:49;10.20;99.90
2955;DHT22;1487;51.470;6.938;2023-12-29T11:24:17;10.20;99.90
2955;DHT22;1487;51.470;6.938;2023-12-29T11:26:44;10.30;99.90
2955;DHT22;1487;51.470;6.938;2023-12-29T11:29:12;10.20;99.90
2955;DHT22;1487;51.470;6.938;2023-12-29T11:31:39;10.30;99.90
2955;DHT22;1487;51.470;6.938;2023-12-29T11:34:10;10.30;99.90
2955;DHT22;1487;51.470;6.938;2023-12-29T11:36:43;10.30;99.90
2955;DHT22;1487;51.470;6.938;2023-12-29T11:39:17;10.30;99.90
2955;DHT22;1487;51.470;6.938;2023-12-29T11:42:00;10.30;99.90
2955;DHT22;1487;51.470;6.938;2023-12-29T11:44:30;10.30;99.90
2955;DHT22;1487;51.470;6.938;2023-12-29T11:46:59;10.30;99.90
2955;DHT22;1487;51.470;6.938;2023-12-29T11:49:25;10.30;99.90
2955;DHT22;1487;51.470;6.938;2023-12-29T11:51:52;10.30;99.90
2955;DHT22;1487;51.470;6.938;2023-12-29T11:54:22;10.40;99.90
2955;DHT22;1487;51.470;6.938;2023-12-29T11:56:49;10.50;99.90
2955;DHT22;1487;51.470;6.938;2023-12-29T11:59:18;10.50;99.90
2955;DHT22;1487;51.470;6.938;2023-12-29T12:01:49;10.50;99.90
2955;DHT22;1487;51.470;6.938;2023-12-29T12:04:38;10.60;99.90
2955;DHT22;1487;51.470;6.938;2023-12-29T12:07:06;10.60;99.90
2955;DHT22;1487;51.470;6.938;2023-12-29T12:09:33;10.60;99.90
2955;DHT22;1487;51.470;6.938;2023-12-29T12:12:01;10.60;99.90
2955;DHT22;1487;51.470;6.938;2023-12-29T12:14:48;10.60;99.90
2955;DHT22;1487;51.470;6.938;2023-12-29T12:17:33;10.60;99.90
2955;DHT22;1487;51.470;6.938;2023-12-29T12:20:04;10.60;99.90
2955;DHT22;1487;51.470;6.938;2023-12-29T12:22:35;10.50;99.90
2955;DHT22;1487;51.470;6.938;2023-12-29T12:25:03;10.50;99.90
2955;DHT22;1487;51.470;6.938;2023-12-29T12:27:30;10.40;99.90
2955;DHT22;1487;51.470;6.938;2023-12-29T12:29:58;10.30;99.90
2955;DHT22;1487;51.470;6.938;2023-12-29T12:32:26;10.20;99.90
2955;DHT22;1487;51.470;6.938;2023-12-29T12:34:54;10.20;99.90
2955;DHT22;1487;51.470;6.938;2023-12-29T12:37:22;10.20;99.90
2955;DHT22;1487;51.470;6.938;2023-12-29T12:39:49;10.10;99.90
2955;DHT22;1487;51.470;6.938;2023-12-29T12:42:18;10.20;99.90
2955;DHT22;1487;51.470;6.938;2023-12-29T12:44:53;10.20;99.90
2955;DHT22;1487;51.470;6.938;2023-12-29T12:47:26;10.10;99.90
2955;DHT22;1487;51.470;6.938;2023-12-29T12:49:55;10.10;99.90
2955;DHT22;1487;51.470;6.938;2023-12-29T12:52:22;10.10;99.90
2955;DHT22;1487;51.470;6.938;2023-12-29T12:54:49;10.00;99.90
2955;DHT22;1487;51.470;6.938;2023-12-29T12:57:20;9.90;99.90
2955;DHT22;1487;51.470;6.938;2023-12-29T12:59:48;9.80;99.90
2955;DHT22;1487;51.470;6.938;2023-12-29T13:02:15;9.80;99.90
2955;DHT22;1487;51.470;6.938;2023-12-29T13:04:42;9.80;99.90
2955;DHT22;1487;51.470;6.938;2023-12-29T13:07:15;9.70;99.90
2955;DHT22;1487;51.470;6.938;2023-12-29T13:09:42;9.70;99.90
2955;DHT22;1487;51.470;6.938;2023-12-29T13:12:10;9.70;99.90
2955;DHT22;1487;51.470;6.938;2023-12-29T13:14:39;9.70;99.90
2955;DHT22;1487;51.470;6.938;2023-12-29T13:17:07;9.70;99.90
2955;DHT22;1487;51.470;6.938;2023-12-29T13:19:34;9.70;99.90
2955;DHT22;1487;51.470;6.938;2023-12-29T13:22:03;9.70;99.90
2955;DHT22;1487;51.470;6.938;2023-12-29T13:24:34;9.70;99.90
2955;DHT22;1487;51.470;6.938;2023-12-29T13:27:04;9.70;99.90
2955;DHT22;1487;51.470;6.938;2023-12-29T13:29:31;9.70;99.90
2955;DHT22;1487;51.470;6.938;2023-12-29T13:32:03;9.70;99.90
2955;DHT22;1487;51.470;6.938;2023-12-29T13:34:39;9.70;99.90
2955;DHT22;1487;51.470;6.938;2023-12-29T13:37:12;9.70;99.90
2955;DHT22;1487;51.470;6.938;2023-12-29T13:39:49;9.70;99.90
2955;DHT22;1487;51.470;6.938;2023-12-29T13:42:19;9.70;99.90
2955;DHT22;1487;51.470;6.938;2023-12-29T13:44:48;9.80;99.90
2955;DHT22;1487;51.470;6.938;2023-12-29T13:47:16;9.80;99.90
2955;DHT22;1487;51.470;6.938;2023-12-29T13:49:43;9.80;99.90
2955;DHT22;1487;51.470;6.938;2023-12-29T13:52:10;9.80;99.90
2955;DHT22;1487;51.470;6.938;2023-12-29T13:54:44;9.80;99.90
2955;DHT22;1487;51.470;6.938;2023-12-29T13:57:11;9.80;99.90
2955;DHT22;1487;51.470;6.938;2023-12-29T13:59:38;9.80;99.90
2955;DHT22;1487;51.470;6.938;2023-12-29T14:02:20;9.80;99.90
2955;DHT22;1487;51.470;6.938;2023-12-29T14:05:05;9.90;99.90
2955;DHT22;1487;51.470;6.938;2023-12-29T14:07:36;9.90;99.90
2955;DHT22;1487;51.470;6.938;2023-12-29T14:10:05;9.90;99.90
2955;DHT22;1487;51.470;6.938;2023-12-29T14:12:32;9.90;99.90
2955;DHT22;1487;51.470;6.938;2023-12-29T14:15:03;10.00;99.90
2955;DHT22;1487;51.470;6.938;2023-12-29T14:17:30;10.00;99.90
2955;DHT22;1487;51.470;6.938;2023-12-29T14:19:59;10.00;99.90
2955;DHT22;1487;51.470;6.938;2023-12-29T14:22:31;10.00;99.90
2955;DHT22;1487;51.470;6.938;2023-12-29T14:25:01;10.10;99.90
2955;DHT22;1487;51.470;6.938;2023-12-29T14:27:31;10.10;99.90
2955;DHT22;1487;51.470;6.938;2023-12-29T14:29:57;10.10;99.90
2955;DHT22;1487;51.470;6.938;2023-12-29T14:32:24;10.10;99.90
2955;DHT22;1487;51.470;6.938;2023-12-29T14:34:54;10.20;99.90
2955;DHT22;1487;51.470;6.938;2023-12-29T14:37:22;10.20;99.90
2955;DHT22;1487;51.470;6.938;2023-12-29T14:39:49;10.20;99.90
2955;DHT22;1487;51.470;6.938;2023-12-29T14:42:15;10.20;99.90
2955;DHT22;1487;51.470;6.938;2023-12-29T14:44:45;10.20;99.90
2955;DHT22;1487;51.470;6.938;2023-12-29T14:47:13;10.20;99.90
2955;DHT22;1487;51.470;6.938;2023-12-29T14:49:39;10.20;99.90
2955;DHT22;1487;51.470;6.938;2023-12-29T14:52:06;10.20;99.90
2955;DHT22;1487;51.470;6.938;2023-12-29T14:54:33;10.20;99.90
2955;DHT22;1487;51.470;6.938;2023-12-29T14:57:00;10.20;99.90
2955;DHT22;1487;51.470;6.938;2023-12-29T14:59:26;10.20;99.90
2955;DHT22;1487;51.470;6.938;2023-12-29T15:01:54;10.20;99.90
2955;DHT22;1487;51.470;6.938;2023-12-29T15:04:21;10.20;99.90
2955;DHT22;1487;51.470;6.938;2023-12-29T15:06:48;10.20;99.90
2955;DHT22;1487;51.470;6.938;2023-12-29T15:09:15;10.20;99.90
2955;DHT22;1487;51.470;6.938;2023-12-29T15:11:42;10.20;99.90
2955;DHT22;1487;51.470;6.938;2023-12-29T15:14:08;10.20;99.90
2955;DHT22;1487;51.470;6.938;2023-12-29T15:16:35;10.20;99.90
2955;DHT22;1487;51.470;6.938;2023-12-29T15:19:03;10.20;99.90
2955;DHT22;1487;51.470;6.938;2023-12-29T15:21:30;10.20;99.90
2955;DHT22;1487;51.470;6.938;2023-12-29T15:23:57;10.10;99.90
2955;DHT22;1487;51.470;6.938;2023-12-29T15:26:24;10.10;99.90
2955;DHT22;1487;51.470;6.938;2023-12-29T15:28:51;10.00;99.90
2955;DHT22;1487;51.470;6.938;2023-12-29T15:31:20;10.00;99.90
2955;DHT22;1487;51.470;6.938;2023-12-29T15:33:47;10.00;99.90
2955;DHT22;1487;51.470;6.938;2023-12-29T15:36:15;9.90;99.90
2955;DHT22;1487;51.470;6.938;2023-12-29T15:38:46;9.80;99.90
2955;DHT22;1487;51.470;6.938;2023-12-29T15:41:12;9.70;99.90
2955;DHT22;1487;51.470;6.938;2023-12-29T15:43:39;9.60;99.90
2955;DHT22;1487;51.470;6.938;2023-12-29T15:46:13;9.60;99.90
2955;DHT22;1487;51.470;6.938;2023-12-29T15:48:40;9.50;99.90
2955;DHT22;1487;51.470;6.938;2023-12-29T15:51:07;9.40;99.90
2955;DHT22;1487;51.470;6.938;2023-12-29T15:53:35;9.40;99.90
2955;DHT22;1487;51.470;6.938;2023-12-29T15:56:02;9.40;99.90
2955;DHT22;1487;51.470;6.938;2023-12-29T15:58:30;9.40;99.90
2955;DHT22;1487;51.470;6.938;2023-12-29T16:00:57;9.40;99.90
2955;DHT22;1487;51.470;6.938;2023-12-29T16:03:24;9.40;99.90
2955;DHT22;1487;51.470;6.938;2023-12-29T16:05:51;9.40;99.90
2955;DHT22;1487;51.470;6.938;2023-12-29T16:08:17;9.40;99.90
2955;DHT22;1487;51.470;6.938;2023-12-29T16:10:45;9.40;99.90
2955;DHT22;1487;51.470;6.938;2023-12-29T16:13:12;9.40;99.90
2955;DHT22;1487;51.470;6.938;2023-12-29T16:15:39;9.40;99.90